Time;durP1;ratioP1;P1;durP2;ratioP2;P2;SDS_P1;SDS_P2;PMS_P1;PMS_P2;Temp;Humidity;BMP_temperature;BMP_pressure;BME280_temperature;BME280_humidity;BME280_pressure;Samples;Min_cycle;Max_cycle;Signal;HPM_P1;HPM_P2
2021/10/24 00:01:20;;;;;;;7.90;4.37;;;8.50;99.90;;;;;;4959496;29;20471;-55
2021/10/24 00:03:46;;;;;;;7.07;4.20;;;8.50;99.90;;;;;;4959373;28;20571;-54
2021/10/24 00:06:15;;;;;;;13.50;5.53;;;8.50;99.90;;;;;;4959244;29;21080;-59
2021/10/24 00:08:42;;;;;;;8.63;4.57;;;8.50;99.90;;;;;;4960229;29;20475;-49
2021/10/24 00:11:08;;;;;;;6.00;3.57;;;8.50;99.90;;;;;;4959272;29;20456;-48
2021/10/24 00:13:35;;;;;;;11.20;5.00;;;8.40;99.90;;;;;;4958978;29;20467;-50
2021/10/24 00:16:02;;;;;;;13.10;4.53;;;8.50;99.90;;;;;;4959152;29;20654;-51
2021/10/24 00:18:29;;;;;;;7.97;3.70;;;8.40;99.90;;;;;;4958806;29;20526;-49
2021/10/24 00:20:56;;;;;;;8.47;4.10;;;8.50;99.90;;;;;;4958644;29;20955;-50
2021/10/24 00:23:27;;;;;;;8.90;4.77;;;8.50;99.90;;;;;;4958791;29;20824;-46
2021/10/24 00:25:55;;;;;;;7.23;3.40;;;8.40;99.90;;;;;;4958591;29;20471;-48
2021/10/24 00:28:22;;;;;;;11.33;3.80;;;8.50;99.90;;;;;;4958696;29;20476;-47
2021/10/24 00:30:51;;;;;;;6.67;3.97;;;8.50;99.90;;;;;;4958783;29;20448;-48
2021/10/24 00:33:17;;;;;;;10.27;5.30;;;8.50;99.90;;;;;;4959009;29;20802;-46
2021/10/24 00:35:44;;;;;;;7.30;3.87;;;8.50;99.90;;;;;;4963340;29;20467;-49
2021/10/24 00:38:11;;;;;;;13.10;4.00;;;8.50;99.90;;;;;;4968110;29;20491;-47
2021/10/24 00:40:39;;;;;;;14.90;3.90;;;8.50;99.90;;;;;;4968359;29;20479;-51
2021/10/24 00:43:06;;;;;;;6.73;3.37;;;8.60;99.90;;;;;;4968038;29;20479;-50
2021/10/24 00:45:33;;;;;;;14.37;4.33;;;8.60;99.90;;;;;;4961494;29;20444;-52
2021/10/24 00:47:59;;;;;;;5.13;3.60;;;8.60;99.90;;;;;;4958551;29;20463;-52
2021/10/24 00:50:27;;;;;;;8.43;4.53;;;8.60;99.90;;;;;;4958232;29;20503;-48
2021/10/24 00:52:54;;;;;;;6.93;4.10;;;8.60;99.90;;;;;;4958028;29;20459;-47
2021/10/24 00:55:23;;;;;;;6.77;3.97;;;8.50;99.90;;;;;;4958477;29;20432;-49
2021/10/24 00:57:51;;;;;;;5.60;2.67;;;8.60;99.90;;;;;;4957817;29;20448;-51
2021/10/24 01:00:18;;;;;;;7.43;3.37;;;8.50;99.90;;;;;;4958312;29;20827;-53
2021/10/24 01:02:45;;;;;;;5.33;4.00;;;8.50;99.90;;;;;;4957518;28;20462;-50
2021/10/24 01:05:13;;;;;;;11.40;3.17;;;8.50;99.90;;;;;;4958358;29;20451;-49
2021/10/24 01:07:45;;;;;;;5.03;3.17;;;8.50;99.90;;;;;;4958150;29;20538;-50
2021/10/24 01:10:15;;;;;;;5.33;3.40;;;8.50;99.90;;;;;;4958317;29;20440;-49
2021/10/24 01:12:44;;;;;;;8.23;4.23;;;8.50;99.90;;;;;;4957961;29;20460;-48
2021/10/24 01:15:12;;;;;;;10.63;5.13;;;8.50;99.90;;;;;;4958105;29;20447;-51
2021/10/24 01:17:39;;;;;;;7.00;4.00;;;8.50;99.90;;;;;;4958396;29;20799;-49
2021/10/24 01:20:07;;;;;;;8.83;5.37;;;8.50;99.90;;;;;;4958452;29;20479;-50
2021/10/24 01:22:37;;;;;;;8.27;4.30;;;8.40;99.90;;;;;;4957912;29;20454;-49
2021/10/24 01:25:06;;;;;;;6.27;4.20;;;8.50;99.90;;;;;;4958095;29;20439;-49
2021/10/24 01:27:33;;;;;;;9.53;4.73;;;8.40;99.90;;;;;;4957720;29;20460;-52
2021/10/24 01:30:01;;;;;;;11.10;3.30;;;8.50;99.90;;;;;;4957595;29;20468;-48
2021/10/24 01:32:28;;;;;;;5.53;3.17;;;8.40;99.90;;;;;;4957661;29;20444;-50
2021/10/24 01:34:55;;;;;;;5.57;2.80;;;8.40;99.90;;;;;;4957623;29;20495;-47
2021/10/24 01:37:22;;;;;;;11.70;3.77;;;8.40;99.90;;;;;;4957814;29;20479;-53
2021/10/24 01:39:50;;;;;;;6.20;3.97;;;8.40;99.90;;;;;;4957463;29;20490;-53
2021/10/24 01:42:16;;;;;;;15.23;4.90;;;8.40;99.90;;;;;;4957941;29;20452;-52
2021/10/24 01:44:43;;;;;;;6.53;4.07;;;8.40;99.90;;;;;;4957092;29;20471;-52
2021/10/24 01:47:10;;;;;;;6.53;3.70;;;8.40;99.90;;;;;;4957404;29;20463;-50
2021/10/24 01:49:37;;;;;;;11.50;4.97;;;8.40;99.90;;;;;;4957506;29;20475;-49
2021/10/24 01:52:04;;;;;;;11.43;4.43;;;8.40;99.90;;;;;;4957082;29;20948;-49
2021/10/24 01:54:30;;;;;;;6.03;3.37;;;8.30;99.90;;;;;;4956950;29;21026;-50
2021/10/24 01:56:59;;;;;;;5.67;3.83;;;8.30;99.90;;;;;;4957282;29;20820;-48
2021/10/24 01:59:25;;;;;;;8.40;4.43;;;8.30;99.90;;;;;;4957028;29;20491;-53
2021/10/24 02:01:52;;;;;;;7.33;4.07;;;8.30;99.90;;;;;;4957142;29;20456;-51
2021/10/24 02:04:19;;;;;;;8.30;4.30;;;8.30;99.90;;;;;;4956826;29;20475;-53
2021/10/24 02:06:45;;;;;;;5.13;3.10;;;8.20;99.90;;;;;;4957070;29;20443;-50
2021/10/24 02:09:12;;;;;;;5.50;3.50;;;8.20;99.90;;;;;;4957106;29;20467;-48
2021/10/24 02:11:38;;;;;;;4.90;3.70;;;8.20;99.90;;;;;;4956970;29;20459;-51
2021/10/24 02:14:06;;;;;;;6.73;3.30;;;8.20;99.90;;;;;;4956760;28;20956;-52
2021/10/24 02:16:33;;;;;;;7.67;3.87;;;8.20;99.90;;;;;;4956907;29;20515;-49
2021/10/24 02:19:00;;;;;;;12.70;4.30;;;8.20;99.90;;;;;;4956483;29;20551;-47
2021/10/24 02:21:26;;;;;;;5.70;3.00;;;8.10;99.90;;;;;;4956909;29;20761;-51
2021/10/24 02:23:53;;;;;;;8.17;4.33;;;8.10;99.90;;;;;;4956625;29;20963;-52
2021/10/24 02:26:20;;;;;;;6.57;3.53;;;8.20;99.90;;;;;;4956758;29;20809;-49
2021/10/24 02:28:46;;;;;;;4.70;3.13;;;8.20;99.90;;;;;;4956314;29;20459;-48
2021/10/24 02:31:15;;;;;;;9.93;3.67;;;8.10;99.90;;;;;;4956752;29;20436;-48
2021/10/24 02:33:41;;;;;;;3.80;3.20;;;8.10;99.90;;;;;;4956556;29;20448;-49
2021/10/24 02:36:08;;;;;;;6.03;3.80;;;8.10;99.90;;;;;;4956643;29;20436;-47
2021/10/24 02:38:34;;;;;;;6.53;3.60;;;8.10;99.90;;;;;;4956689;29;20494;-51
2021/10/24 02:41:01;;;;;;;7.40;3.27;;;8.10;99.90;;;;;;4956278;29;20833;-50
2021/10/24 02:43:28;;;;;;;3.97;3.23;;;8.10;99.90;;;;;;4956592;29;20510;-47
2021/10/24 02:45:54;;;;;;;3.97;3.47;;;8.10;99.90;;;;;;4956332;29;20944;-51
2021/10/24 02:48:22;;;;;;;3.83;2.70;;;8.10;99.90;;;;;;4956178;29;20519;-52
2021/10/24 02:50:49;;;;;;;7.20;3.17;;;8.10;99.90;;;;;;4956438;29;20479;-50
2021/10/24 02:53:16;;;;;;;6.43;4.03;;;8.10;99.90;;;;;;4956444;29;20515;-52
2021/10/24 02:55:43;;;;;;;14.13;3.50;;;8.10;99.90;;;;;;4956409;29;20448;-54
2021/10/24 02:58:09;;;;;;;8.90;5.20;;;8.10;99.90;;;;;;4956073;29;20448;-48
2021/10/24 03:00:36;;;;;;;5.87;3.57;;;8.00;99.90;;;;;;4956412;29;20491;-55
2021/10/24 03:03:02;;;;;;;11.23;3.77;;;8.00;99.90;;;;;;4956386;29;20455;-48
2021/10/24 03:05:31;;;;;;;3.97;2.33;;;8.00;99.90;;;;;;4956256;29;20534;-50
2021/10/24 03:07:57;;;;;;;5.23;2.63;;;8.00;99.90;;;;;;4956316;29;20518;-52
2021/10/24 03:10:24;;;;;;;5.57;3.07;;;8.00;99.90;;;;;;4958794;23;20591;-47
2021/10/24 03:12:50;;;;;;;7.90;4.40;;;8.00;99.90;;;;;;4917876;29;20445;-48
2021/10/24 03:15:17;;;;;;;3.67;3.30;;;8.00;99.90;;;;;;4940500;23;20491;-48
2021/10/24 03:17:44;;;;;;;9.30;3.47;;;8.00;99.90;;;;;;4956216;29;20439;-52
2021/10/24 03:20:11;;;;;;;9.20;3.70;;;8.00;99.90;;;;;;4963250;23;20976;-49
2021/10/24 03:22:39;;;;;;;6.53;3.47;;;8.00;99.90;;;;;;4955873;29;20436;-49
2021/10/24 03:25:06;;;;;;;5.37;3.83;;;8.00;99.90;;;;;;4963688;23;20495;-49
2021/10/24 03:27:33;;;;;;;7.00;3.10;;;8.00;99.90;;;;;;4959968;29;20569;-50
2021/10/24 03:30:00;;;;;;;10.40;3.20;;;8.00;99.90;;;;;;4967204;23;20472;-51
2021/10/24 03:32:27;;;;;;;6.30;3.80;;;8.00;99.90;;;;;;4959572;29;20486;-51
2021/10/24 03:34:53;;;;;;;5.20;2.87;;;8.00;99.90;;;;;;4959709;28;20467;-53
2021/10/24 03:37:20;;;;;;;3.30;3.00;;;8.00;99.90;;;;;;4966978;23;20999;-53
2021/10/24 03:39:48;;;;;;;4.77;2.90;;;8.00;99.90;;;;;;4959536;29;20558;-53
2021/10/24 03:42:15;;;;;;;7.40;3.60;;;8.00;99.90;;;;;;4937897;23;20562;-56
2021/10/24 03:44:41;;;;;;;6.70;3.47;;;8.00;99.90;;;;;;4921772;29;20553;-53
2021/10/24 03:47:08;;;;;;;4.67;3.43;;;8.00;99.90;;;;;;4953001;23;20488;-50
2021/10/24 03:49:35;;;;;;;8.20;3.30;;;8.00;99.90;;;;;;4959125;29;20463;-50
2021/10/24 03:52:01;;;;;;;14.00;3.17;;;7.90;99.90;;;;;;4966830;23;21010;-51
2021/10/24 03:54:28;;;;;;;8.73;3.57;;;7.90;99.90;;;;;;4959128;29;20482;-52
2021/10/24 03:56:56;;;;;;;8.43;3.83;;;7.90;99.90;;;;;;4966667;23;20486;-48
2021/10/24 03:59:23;;;;;;;4.17;2.67;;;7.90;99.90;;;;;;4959204;29;20550;-51
2021/10/24 04:01:50;;;;;;;6.67;3.23;;;7.90;99.90;;;;;;4966780;23;20503;-47
2021/10/24 04:04:16;;;;;;;5.63;3.07;;;8.00;99.90;;;;;;4959218;29;20514;-53
2021/10/24 04:06:43;;;;;;;7.20;3.20;;;7.90;99.90;;;;;;4966443;23;20550;-49
2021/10/24 04:09:10;;;;;;;11.53;3.07;;;8.00;99.90;;;;;;4959238;29;20821;-48
2021/10/24 04:11:37;;;;;;;7.97;3.30;;;8.00;99.90;;;;;;4967170;23;20514;-49
2021/10/24 04:14:06;;;;;;;15.03;3.30;;;8.00;99.90;;;;;;4958647;29;20929;-48
2021/10/24 04:19:13;;;;;;;5.20;3.20;;;8.00;99.90;;;;;;4964069;23;20495;-51
2021/10/24 04:21:40;;;;;;;6.87;3.30;;;8.00;99.90;;;;;;4958900;29;20455;-51
2021/10/24 04:24:06;;;;;;;4.17;2.60;;;8.00;99.90;;;;;;4966068;23;20491;-50
2021/10/24 04:26:33;;;;;;;6.47;3.70;;;7.90;99.90;;;;;;4958767;29;20925;-50
2021/10/24 04:29:00;;;;;;;3.80;2.80;;;7.90;99.90;;;;;;4966103;23;20632;-48
2021/10/24 04:31:28;;;;;;;5.70;3.50;;;7.90;99.90;;;;;;4958519;29;20467;-52
2021/10/24 04:33:55;;;;;;;5.70;3.67;;;7.90;99.90;;;;;;4965878;23;20484;-48
2021/10/24 04:36:21;;;;;;;3.73;2.80;;;7.90;99.90;;;;;;4957928;28;20506;-51
2021/10/24 04:38:48;;;;;;;5.73;3.80;;;7.80;99.90;;;;;;4965358;23;20576;-48
2021/10/24 04:41:15;;;;;;;7.33;3.47;;;7.70;99.90;;;;;;4958669;29;20464;-53
2021/10/24 04:43:42;;;;;;;6.33;3.50;;;7.60;99.90;;;;;;4965706;23;20491;-49
2021/10/24 04:46:09;;;;;;;12.07;3.50;;;7.60;99.90;;;;;;4958170;29;21021;-47
2021/10/24 04:48:37;;;;;;;4.47;2.30;;;7.50;99.90;;;;;;4965782;23;20494;-47
2021/10/24 04:51:04;;;;;;;3.53;3.23;;;7.40;99.90;;;;;;4958410;29;20472;-47
2021/10/24 04:53:31;;;;;;;5.07;3.97;;;7.40;99.90;;;;;;4965896;23;20488;-48
2021/10/24 04:55:57;;;;;;;4.80;4.10;;;7.30;99.90;;;;;;4965561;23;21141;-46
2021/10/24 04:58:24;;;;;;;7.43;3.97;;;7.30;99.90;;;;;;4958009;29;20945;-52
2021/10/24 05:00:51;;;;;;;4.17;3.13;;;7.20;99.90;;;;;;4965264;23;20567;-50
2021/10/24 05:03:17;;;;;;;7.20;2.80;;;7.10;99.90;;;;;;4958213;29;20456;-52
2021/10/24 05:05:46;;;;;;;8.23;4.07;;;7.10;99.90;;;;;;4965376;23;20542;-46
2021/10/24 05:08:14;;;;;;;8.50;4.53;;;7.10;99.90;;;;;;4958522;29;20456;-47
2021/10/24 05:10:41;;;;;;;14.50;4.77;;;7.10;99.90;;;;;;4965137;23;20562;-53
2021/10/24 05:13:08;;;;;;;10.67;4.30;;;7.10;99.90;;;;;;4957718;29;20456;-49
2021/10/24 05:15:35;;;;;;;4.60;3.97;;;7.10;99.90;;;;;;4965725;23;20491;-48
2021/10/24 05:18:02;;;;;;;11.53;6.30;;;7.10;99.90;;;;;;4958275;29;20452;-46
2021/10/24 05:20:28;;;;;;;7.87;4.00;;;7.10;99.90;;;;;;4964841;23;20491;-51
2021/10/24 05:22:56;;;;;;;6.63;3.87;;;7.10;99.90;;;;;;4957598;29;20881;-51
2021/10/24 05:25:23;;;;;;;4.57;3.60;;;7.00;99.90;;;;;;4964957;23;20505;-48
2021/10/24 05:27:54;;;;;;;8.93;3.97;;;7.00;99.90;;;;;;4965229;23;20555;-51
2021/10/24 05:30:21;;;;;;;4.30;3.00;;;7.00;99.90;;;;;;4957670;29;20476;-50
2021/10/24 05:32:48;;;;;;;8.27;4.90;;;6.90;99.90;;;;;;4964746;23;20984;-47
2021/10/24 05:35:14;;;;;;;8.10;4.83;;;7.00;99.90;;;;;;4957499;29;20452;-48
2021/10/24 05:37:41;;;;;;;12.30;4.03;;;6.90;99.90;;;;;;4964781;23;20550;-48
2021/10/24 05:40:11;;;;;;;9.03;4.40;;;6.90;99.90;;;;;;4957337;29;20488;-49
2021/10/24 05:42:39;;;;;;;7.37;3.70;;;6.80;99.90;;;;;;4964648;23;20969;-46
2021/10/24 05:45:06;;;;;;;7.93;4.47;;;6.80;99.90;;;;;;4957611;29;20475;-49
2021/10/24 05:47:33;;;;;;;6.37;3.80;;;6.80;99.90;;;;;;4964613;23;20550;-50
2021/10/24 05:50:00;;;;;;;6.80;3.73;;;6.80;99.90;;;;;;4957488;29;20440;-51
2021/10/24 05:52:26;;;;;;;5.40;3.50;;;6.80;99.90;;;;;;4965043;23;20454;-49
2021/10/24 05:54:54;;;;;;;7.13;3.67;;;6.80;99.90;;;;;;4957284;29;20507;-49
2021/10/24 05:57:22;;;;;;;3.50;2.73;;;6.80;99.90;;;;;;4965935;23;20493;-53
2021/10/24 05:59:48;;;;;;;16.63;4.33;;;6.80;99.90;;;;;;4956225;28;20507;-51
2021/10/24 06:02:15;;;;;;;5.10;4.07;;;6.80;99.90;;;;;;4957181;29;20475;-49
2021/10/24 06:04:42;;;;;;;6.60;3.40;;;6.70;99.90;;;;;;4964289;23;20499;-49
2021/10/24 06:07:09;;;;;;;9.20;4.10;;;6.70;99.90;;;;;;4957133;29;20460;-46
2021/10/24 06:09:42;;;;;;;9.97;4.80;;;6.70;99.90;;;;;;4964261;23;20487;-48
2021/10/24 06:12:13;;;;;;;7.73;4.80;;;6.70;99.90;;;;;;4957043;28;20563;-47
2021/10/24 06:14:42;;;;;;;5.17;4.67;;;6.70;99.90;;;;;;4964192;23;20823;-51
2021/10/24 06:17:08;;;;;;;9.80;4.90;;;6.70;99.90;;;;;;4956873;29;20523;-47
2021/10/24 06:19:35;;;;;;;9.03;4.70;;;6.70;99.90;;;;;;4964066;23;20498;-46
2021/10/24 06:22:02;;;;;;;4.93;4.40;;;6.70;99.90;;;;;;4956450;29;20933;-51
2021/10/24 06:24:29;;;;;;;7.77;4.27;;;6.70;99.90;;;;;;4964062;23;20499;-49
2021/10/24 06:26:55;;;;;;;4.37;3.60;;;6.80;99.90;;;;;;4956770;29;20480;-52
2021/10/24 06:29:22;;;;;;;7.27;4.73;;;6.70;99.90;;;;;;4964169;23;20503;-47
2021/10/24 06:31:50;;;;;;;5.80;4.70;;;6.70;99.90;;;;;;4956860;29;20538;-50
2021/10/24 06:34:17;;;;;;;10.93;5.13;;;6.60;99.90;;;;;;4963997;23;20499;-51
2021/10/24 06:36:44;;;;;;;8.60;4.43;;;6.60;99.90;;;;;;4956679;28;20546;-49
2021/10/24 06:39:11;;;;;;;7.60;3.30;;;6.70;99.90;;;;;;4964122;23;20462;-51
2021/10/24 06:41:37;;;;;;;7.30;5.10;;;6.70;99.90;;;;;;4956249;29;20492;-54
2021/10/24 06:46:32;;;;;;;9.30;5.00;;;6.70;99.90;;;;;;4961473;23;20516;-50
2021/10/24 06:49:00;;;;;;;6.00;4.03;;;6.70;99.90;;;;;;4956368;29;20953;-52
2021/10/24 06:51:27;;;;;;;9.47;5.13;;;6.70;99.90;;;;;;4963406;23;21014;-52
2021/10/24 06:53:54;;;;;;;8.03;4.27;;;6.80;99.90;;;;;;4956477;29;20510;-49
2021/10/24 07:14:29;;;;;;;13.43;6.00;;;7.30;99.90;;;;;;1257144;26;20521;-51
2021/10/24 07:27:18;;;;;;;13.97;4.93;;;7.50;99.90;;;;;;1004722;26;20743;-48
2021/10/24 07:32:22;;;;;;;9.20;5.33;;;7.50;99.90;;;;;;4836464;26;20471;-48
2021/10/24 07:42:36;;;;;;;10.10;4.90;;;7.60;99.90;;;;;;3832158;26;20474;-49
2021/10/24 07:58:00;;;;;;;12.70;5.87;;;7.70;99.90;;;;;;2421560;23;20770;-47
2021/10/24 08:10:50;;;;;;;7.03;4.80;;;8.10;99.90;;;;;;5178754;23;20475;-51
2021/10/24 09:25:57;;;;;;;5.83;3.23;;;11.60;99.90;;;;;;3229023;23;20517;-48
2021/10/24 09:28:27;;;;;;;10.63;4.50;;;12.70;99.90;;;;;;4962962;29;20426;-49
2021/10/24 09:31:03;;;;;;;10.33;4.10;;;13.80;99.90;;;;;;4962227;29;20444;-50
2021/10/24 09:33:47;;;;;;;5.30;3.87;;;15.30;99.90;;;;;;4961530;29;20530;-52
2021/10/24 09:36:22;;;;;;;7.97;4.00;;;16.70;99.90;;;;;;4964667;29;20484;-50
2021/10/24 09:38:48;;;;;;;8.80;4.00;;;17.70;99.90;;;;;;4960885;29;20435;-49
2021/10/24 09:41:29;;;;;;;8.27;4.23;;;18.60;99.90;;;;;;4960448;29;20488;-50
2021/10/24 09:44:08;;;;;;;4.33;3.53;;;19.30;98.00;;;;;;4964262;29;20466;-50
2021/10/24 09:46:35;;;;;;;3.50;2.67;;;20.00;94.50;;;;;;4961727;29;20463;-51
2021/10/24 09:49:03;;;;;;;6.13;3.17;;;20.60;91.60;;;;;;4961681;29;20500;-50
2021/10/24 09:51:35;;;;;;;7.73;3.80;;;20.90;89.20;;;;;;4960871;29;20456;-53
2021/10/24 09:54:16;;;;;;;6.60;3.17;;;21.30;84.60;;;;;;4961017;29;20448;-56
2021/10/24 09:56:45;;;;;;;5.83;3.70;;;21.20;82.10;;;;;;4960141;29;20432;-49
2021/10/24 09:59:13;;;;;;;7.57;2.90;;;21.10;81.50;;;;;;4960023;29;20546;-51
2021/10/24 10:01:40;;;;;;;5.93;3.57;;;21.30;79.80;;;;;;4960250;29;20569;-48
2021/10/24 10:04:08;;;;;;;8.53;3.43;;;21.50;78.90;;;;;;4959825;29;20502;-46
2021/10/24 10:06:34;;;;;;;9.43;4.00;;;21.70;77.80;;;;;;4961818;29;20498;-46
2021/10/24 10:09:01;;;;;;;7.23;3.80;;;21.80;76.70;;;;;;4959309;29;20452;-48
2021/10/24 10:11:35;;;;;;;7.90;3.73;;;22.10;75.00;;;;;;4959625;29;20444;-55
2021/10/24 10:14:08;;;;;;;3.50;2.73;;;22.10;75.00;;;;;;4959485;29;20424;-51
2021/10/24 10:16:36;;;;;;;7.03;3.83;;;22.20;72.90;;;;;;4959423;29;20456;-51
2021/10/24 10:19:05;;;;;;;7.90;3.60;;;22.30;71.50;;;;;;4959513;29;20767;-48
2021/10/24 10:21:35;;;;;;;7.50;4.23;;;22.30;69.90;;;;;;4958844;29;20514;-49
2021/10/24 10:24:03;;;;;;;7.87;3.17;;;22.20;70.50;;;;;;4959119;29;20814;-49
2021/10/24 10:26:38;;;;;;;3.40;3.10;;;22.30;68.90;;;;;;4959395;28;20530;-48
2021/10/24 10:29:08;;;;;;;3.87;2.87;;;22.20;67.30;;;;;;4963950;28;20442;-48
2021/10/24 10:31:36;;;;;;;6.63;3.00;;;21.60;68.10;;;;;;4971601;28;20454;-47
2021/10/24 10:34:05;;;;;;;11.13;3.93;;;21.00;69.00;;;;;;4977855;28;20454;-46
2021/10/24 10:37:02;;;;;;;4.03;2.97;;;20.70;71.00;;;;;;4962615;28;20929;-51
2021/10/24 10:39:40;;;;;;;6.17;3.43;;;20.70;71.20;;;;;;4958357;29;20444;-46
2021/10/24 10:42:47;;;;;;;6.07;3.03;;;20.40;71.70;;;;;;4956356;29;20483;-47
2021/10/24 10:45:27;;;;;;;3.57;3.27;;;20.40;73.40;;;;;;4956142;28;20436;-48
2021/10/24 10:47:57;;;;;;;4.00;3.03;;;20.60;71.80;;;;;;4956105;28;20478;-47
2021/10/24 10:50:45;;;;;;;6.50;2.90;;;20.40;72.20;;;;;;4962836;28;20443;-49
2021/10/24 10:53:18;;;;;;;4.23;3.10;;;20.30;73.10;;;;;;4957450;29;20476;-46
2021/10/24 10:56:16;;;;;;;9.90;3.20;;;20.10;74.00;;;;;;4962494;28;20447;-49
2021/10/24 10:58:45;;;;;;;5.83;3.87;;;19.70;74.80;;;;;;4949240;28;20463;-47
2021/10/24 11:01:21;;;;;;;2.30;2.10;;;19.30;76.70;;;;;;4970697;28;20503;-49
2021/10/24 11:03:49;;;;;;;3.90;2.70;;;18.60;77.80;;;;;;4971959;28;20800;-48
2021/10/24 11:06:46;;;;;;;9.33;2.43;;;18.00;79.50;;;;;;4962314;28;20517;-52
2021/10/24 11:09:33;;;;;;;3.23;2.47;;;17.30;80.80;;;;;;4957761;28;20484;-50
2021/10/24 11:12:01;;;;;;;3.63;1.97;;;16.50;82.20;;;;;;4962518;29;20447;-47
2021/10/24 11:14:41;;;;;;;15.40;3.30;;;16.10;84.40;;;;;;4975050;28;20475;-48
2021/10/24 11:17:30;;;;;;;7.93;2.80;;;15.60;85.40;;;;;;4977612;29;20487;-47
2021/10/24 11:19:58;;;;;;;6.40;1.93;;;15.30;87.50;;;;;;4962012;28;20463;-50
2021/10/24 11:22:25;;;;;;;9.57;1.90;;;14.90;88.40;;;;;;4959581;29;20480;-50
2021/10/24 11:24:54;;;;;;;4.00;1.70;;;14.70;90.30;;;;;;4961892;28;20498;-49
2021/10/24 11:27:22;;;;;;;4.80;1.70;;;14.70;90.50;;;;;;4970523;28;20423;-46
2021/10/24 11:29:51;;;;;;;4.30;2.10;;;14.60;91.20;;;;;;4961368;29;20448;-47
2021/10/24 11:32:23;;;;;;;5.90;3.40;;;14.60;92.10;;;;;;4959771;29;20435;-47
2021/10/24 11:34:49;;;;;;;6.03;2.40;;;14.40;91.50;;;;;;4961024;29;20570;-47
2021/10/24 11:37:17;;;;;;;4.30;2.70;;;14.20;92.70;;;;;;4959883;29;20463;-47
2021/10/24 11:39:48;;;;;;;2.80;1.67;;;14.10;92.30;;;;;;4962789;29;20476;-47
2021/10/24 11:42:17;;;;;;;3.73;2.47;;;13.80;93.20;;;;;;4959344;29;20987;-49
2021/10/24 11:44:45;;;;;;;3.77;2.00;;;13.60;94.20;;;;;;4959765;29;20957;-46
2021/10/24 11:47:13;;;;;;;5.03;2.30;;;13.60;95.60;;;;;;4962537;28;20448;-52
2021/10/24 11:49:45;;;;;;;6.27;2.00;;;13.70;96.30;;;;;;4963299;29;20499;-51
2021/10/24 11:52:23;;;;;;;4.00;1.57;;;13.80;97.00;;;;;;4963172;29;20479;-51
2021/10/24 11:55:03;;;;;;;5.07;2.23;;;13.80;96.30;;;;;;4963596;29;20498;-48
2021/10/24 11:57:45;;;;;;;2.57;1.90;;;13.90;95.60;;;;;;4964402;29;20435;-48
2021/10/24 12:00:22;;;;;;;5.10;1.40;;;13.90;95.50;;;;;;4961280;29;20491;-48
2021/10/24 12:02:59;;;;;;;3.20;2.13;;;14.00;94.90;;;;;;4961393;29;20485;-48
2021/10/24 12:05:27;;;;;;;3.13;1.80;;;13.90;94.80;;;;;;4962973;29;20482;-50
2021/10/24 12:07:57;;;;;;;4.70;2.27;;;14.00;94.80;;;;;;4962781;29;20452;-49
2021/10/24 12:10:35;;;;;;;8.13;4.03;;;14.20;95.00;;;;;;4959249;29;20483;-51
2021/10/24 12:13:03;;;;;;;3.27;2.30;;;14.20;94.80;;;;;;4959200;29;20440;-47
2021/10/24 12:15:38;;;;;;;1.77;1.43;;;14.20;94.70;;;;;;4959131;29;20491;-51
2021/10/24 12:18:12;;;;;;;4.03;2.20;;;14.20;94.80;;;;;;4958937;29;20444;-52
2021/10/24 12:20:39;;;;;;;3.33;1.97;;;14.10;94.90;;;;;;4958638;29;20935;-49
2021/10/24 12:23:16;;;;;;;4.30;2.87;;;14.10;95.00;;;;;;4958849;29;20480;-48
2021/10/24 12:25:46;;;;;;;3.10;2.50;;;14.10;94.90;;;;;;4958878;29;20847;-50
2021/10/24 12:28:18;;;;;;;2.23;1.53;;;14.00;94.90;;;;;;4959667;29;20462;-51
2021/10/24 12:30:50;;;;;;;7.57;2.37;;;13.90;94.40;;;;;;4959132;29;20583;-50
2021/10/24 12:33:26;;;;;;;6.40;2.57;;;13.90;94.30;;;;;;4959194;29;20448;-49
2021/10/24 12:35:55;;;;;;;6.10;2.23;;;13.90;93.60;;;;;;4960116;29;20526;-53
2021/10/24 12:38:24;;;;;;;7.73;3.43;;;13.90;93.30;;;;;;4960621;29;20543;-57
2021/10/24 12:40:52;;;;;;;5.60;2.37;;;13.80;93.20;;;;;;4959932;29;20472;-47
2021/10/24 12:43:19;;;;;;;3.73;1.90;;;13.80;93.40;;;;;;4957654;29;20463;-50
2021/10/24 12:45:56;;;;;;;5.63;2.27;;;13.70;93.80;;;;;;4958946;29;20471;-46
2021/10/24 12:48:37;;;;;;;2.40;1.60;;;13.80;93.70;;;;;;4957479;29;20435;-48
2021/10/24 12:51:19;;;;;;;3.53;1.50;;;13.90;94.30;;;;;;4958419;29;20542;-49
2021/10/24 12:53:47;;;;;;;2.63;1.50;;;13.90;94.10;;;;;;4958262;29;20455;-49
2021/10/24 12:56:14;;;;;;;2.80;1.37;;;14.00;94.50;;;;;;4958073;29;20547;-48
2021/10/24 12:58:41;;;;;;;5.13;2.13;;;13.90;94.60;;;;;;4957502;28;20487;-48
2021/10/24 13:01:19;;;;;;;3.40;1.90;;;14.00;94.80;;;;;;4958246;29;20526;-47
2021/10/24 13:03:46;;;;;;;9.07;1.87;;;14.00;95.20;;;;;;4958269;29;20971;-54
2021/10/24 13:06:13;;;;;;;4.70;1.87;;;14.00;95.10;;;;;;4959745;29;20468;-50
2021/10/24 13:08:41;;;;;;;2.60;1.40;;;14.00;95.30;;;;;;4959928;29;20804;-48
2021/10/24 13:11:09;;;;;;;2.83;1.63;;;14.00;95.40;;;;;;4960182;29;20475;-49
2021/10/24 13:13:36;;;;;;;3.93;1.97;;;14.00;95.80;;;;;;4959895;29;20472;-49
2021/10/24 13:16:03;;;;;;;6.40;2.70;;;14.20;95.30;;;;;;4959587;29;20448;-47
2021/10/24 13:18:29;;;;;;;2.37;1.70;;;14.20;94.60;;;;;;4959596;29;20451;-50
2021/10/24 13:21:01;;;;;;;2.20;1.57;;;14.20;94.10;;;;;;4959742;29;20507;-52
2021/10/24 13:23:27;;;;;;;4.93;1.70;;;14.10;94.10;;;;;;4959616;29;20432;-50
2021/10/24 13:25:54;;;;;;;1.83;1.50;;;14.00;94.60;;;;;;4959653;29;20474;-51
2021/10/24 13:28:23;;;;;;;1.87;1.30;;;14.10;93.70;;;;;;4959713;29;20503;-47
2021/10/24 13:30:50;;;;;;;13.23;4.20;;;14.00;93.80;;;;;;4960023;29;20567;-49
2021/10/24 13:33:17;;;;;;;6.00;1.70;;;13.90;94.10;;;;;;4961084;29;20439;-50
2021/10/24 13:35:44;;;;;;;6.10;2.90;;;13.80;94.60;;;;;;4959595;29;21008;-51
2021/10/24 13:38:11;;;;;;;7.23;2.03;;;13.90;95.10;;;;;;4959990;29;20507;-52
2021/10/24 13:40:38;;;;;;;10.17;2.23;;;13.90;95.40;;;;;;4961046;29;20462;-49
2021/10/24 13:43:05;;;;;;;6.30;2.27;;;13.90;95.60;;;;;;4960056;29;20484;-50
2021/10/24 13:45:34;;;;;;;3.10;2.07;;;13.90;95.60;;;;;;4959597;29;20526;-52
2021/10/24 13:48:04;;;;;;;5.33;1.90;;;13.80;95.80;;;;;;4959227;29;20511;-46
2021/10/24 13:50:31;;;;;;;4.30;1.53;;;13.80;95.40;;;;;;4959513;29;20455;-52
2021/10/24 13:52:58;;;;;;;3.60;1.87;;;13.70;95.50;;;;;;4959778;29;20523;-49
2021/10/24 13:55:24;;;;;;;3.60;1.73;;;13.70;95.50;;;;;;4959776;29;20451;-48
2021/10/24 13:57:51;;;;;;;2.70;1.93;;;13.70;95.30;;;;;;4959283;29;20472;-50
2021/10/24 14:00:18;;;;;;;4.23;1.90;;;13.70;94.90;;;;;;4958714;29;20447;-47
2021/10/24 14:02:51;;;;;;;5.63;1.47;;;13.60;94.50;;;;;;4959300;29;20488;-46
2021/10/24 14:05:18;;;;;;;4.10;1.90;;;13.60;94.60;;;;;;4959412;29;20439;-49
2021/10/24 14:07:45;;;;;;;3.30;1.67;;;13.60;94.50;;;;;;4961208;29;20463;-46
2021/10/24 14:10:14;;;;;;;3.60;1.90;;;13.60;94.20;;;;;;4959752;28;20479;-51
2021/10/24 14:12:41;;;;;;;3.67;1.43;;;13.60;94.10;;;;;;4958975;29;20443;-51
2021/10/24 14:15:09;;;;;;;2.40;1.50;;;13.60;93.80;;;;;;4958903;29;20475;-52
2021/10/24 14:17:36;;;;;;;5.17;1.50;;;13.60;93.50;;;;;;4958537;29;20460;-51
2021/10/24 14:20:06;;;;;;;3.70;2.00;;;13.50;93.20;;;;;;4959101;29;20479;-50
2021/10/24 14:22:33;;;;;;;4.23;2.10;;;13.40;93.30;;;;;;4959000;29;20843;-50
2021/10/24 14:25:00;;;;;;;2.77;1.40;;;13.40;93.40;;;;;;4958834;29;20466;-51
2021/10/24 14:27:27;;;;;;;3.73;1.73;;;13.30;93.10;;;;;;4958766;29;20495;-48
2021/10/24 14:29:54;;;;;;;4.37;1.60;;;13.30;93.30;;;;;;4958813;29;21000;-53
2021/10/24 14:32:20;;;;;;;4.47;2.07;;;13.30;93.30;;;;;;4958723;29;20456;-50
2021/10/24 14:34:47;;;;;;;6.03;2.40;;;13.30;93.20;;;;;;4959506;29;20454;-51
2021/10/24 14:37:16;;;;;;;2.93;1.50;;;13.20;93.20;;;;;;4960454;29;20472;-55
2021/10/24 14:39:42;;;;;;;3.13;1.90;;;13.10;93.40;;;;;;4958606;29;20921;-47
2021/10/24 14:42:09;;;;;;;2.13;1.60;;;13.10;93.50;;;;;;4959179;29;20813;-52
2021/10/24 14:44:36;;;;;;;2.43;1.60;;;13.10;93.80;;;;;;4959282;29;20440;-52
2021/10/24 14:47:03;;;;;;;3.30;2.00;;;13.00;94.00;;;;;;4958985;29;20458;-52
2021/10/24 14:49:30;;;;;;;2.40;1.70;;;13.10;94.20;;;;;;4958398;29;20499;-48
2021/10/24 14:51:57;;;;;;;6.43;2.67;;;13.10;94.40;;;;;;4958450;29;20443;-48
2021/10/24 14:54:25;;;;;;;5.40;2.10;;;13.10;94.40;;;;;;4958632;29;20451;-51
2021/10/24 14:56:53;;;;;;;3.80;1.87;;;13.10;94.60;;;;;;4958299;29;20938;-50
2021/10/24 14:59:21;;;;;;;4.53;2.13;;;13.10;94.80;;;;;;4958631;29;20490;-49
2021/10/24 15:01:47;;;;;;;5.87;2.37;;;13.00;94.70;;;;;;4958692;29;20491;-52
2021/10/24 15:04:14;;;;;;;6.70;1.40;;;13.00;94.80;;;;;;4961916;29;20472;-49
2021/10/24 15:06:41;;;;;;;2.83;1.77;;;13.00;95.00;;;;;;4960678;29;20475;-53
2021/10/24 15:09:10;;;;;;;6.10;2.33;;;12.90;95.30;;;;;;4960766;29;20452;-49
2021/10/24 15:11:38;;;;;;;3.60;2.30;;;12.80;95.50;;;;;;4959505;29;20447;-52
2021/10/24 15:14:06;;;;;;;4.10;2.10;;;12.80;96.00;;;;;;4958453;29;20941;-50
2021/10/24 15:16:40;;;;;;;5.30;1.70;;;12.80;96.40;;;;;;4956194;29;20478;-55
2021/10/24 15:22:05;;;;;;;4.03;2.50;;;13.90;99.90;;;;;;4958380;28;20554;-54